Owls Head, New York
Current Conditions -  °F | °C
As of 4:51 AM on Tuesday 27 Jan 2015 (Local Time) from KSLK Reporting Station
Clear Clear  
Wind Chill: -10°   Ceiling: Unl
Heat Index:   Visibility: 10mi
Dew Point: -5°   Wind: 9mph
Humidity: 66%   Direction: 70°ENE
Pressure: 29.82"   Gusts: NA
Location:  44.73°N, 74.17°W
Report Text: KSLK 270951Z AUTO 07008KT 10SM CLR M16/M21 A2982 RMK AO2 SLP136 T11561206 $
Loading
Personal Weather Stations






























Interactive Weather Map New forecast layout! Learn more

10-Day Weather Forecast

Advertisements
Track Severe Weather on mobile